sensor_id;sensor_type;location;lat;lon;timestamp;temperature;humidity
15959;DHT22;8078;47.822;9.402;2023-02-15T00:01:22;1.90;99.90
15959;DHT22;8078;47.822;9.402;2023-02-15T00:03:48;1.80;99.90
15959;DHT22;8078;47.822;9.402;2023-02-15T00:06:14;1.80;99.90
15959;DHT22;8078;47.822;9.402;2023-02-15T00:08:40;1.70;99.90
15959;DHT22;8078;47.822;9.402;2023-02-15T00:11:14;1.70;99.90
15959;DHT22;8078;47.822;9.402;2023-02-15T00:13:40;1.70;99.90
15959;DHT22;8078;47.822;9.402;2023-02-15T00:16:11;1.70;99.90
15959;DHT22;8078;47.822;9.402;2023-02-15T00:18:40;1.80;99.90
15959;DHT22;8078;47.822;9.402;2023-02-15T00:21:08;2.00;99.90
15959;DHT22;8078;47.822;9.402;2023-02-15T00:23:34;2.10;99.90
15959;DHT22;8078;47.822;9.402;2023-02-15T00:26:10;2.10;99.90
15959;DHT22;8078;47.822;9.402;2023-02-15T00:28:36;2.10;99.90
15959;DHT22;8078;47.822;9.402;2023-02-15T00:31:07;2.10;99.90
15959;DHT22;8078;47.822;9.402;2023-02-15T00:33:33;2.10;99.90
15959;DHT22;8078;47.822;9.402;2023-02-15T00:35:59;2.10;99.90
15959;DHT22;8078;47.822;9.402;2023-02-15T00:38:27;2.00;99.90
15959;DHT22;8078;47.822;9.402;2023-02-15T00:40:57;2.10;99.90
15959;DHT22;8078;47.822;9.402;2023-02-15T00:43:23;2.10;99.90
15959;DHT22;8078;47.822;9.402;2023-02-15T00:45:49;2.00;99.90
15959;DHT22;8078;47.822;9.402;2023-02-15T00:48:14;2.00;99.90
15959;DHT22;8078;47.822;9.402;2023-02-15T00:50:40;2.00;99.90
15959;DHT22;8078;47.822;9.402;2023-02-15T00:53:06;2.00;99.90
15959;DHT22;8078;47.822;9.402;2023-02-15T00:55:31;2.00;99.90
15959;DHT22;8078;47.822;9.402;2023-02-15T00:57:57;2.00;99.90
15959;DHT22;8078;47.822;9.402;2023-02-15T01:00:22;2.00;99.90
15959;DHT22;8078;47.822;9.402;2023-02-15T01:02:48;2.00;99.90
15959;DHT22;8078;47.822;9.402;2023-02-15T01:05:14;1.90;99.90
15959;DHT22;8078;47.822;9.402;2023-02-15T01:07:39;1.90;99.90
15959;DHT22;8078;47.822;9.402;2023-02-15T01:10:06;1.90;99.90
15959;DHT22;8078;47.822;9.402;2023-02-15T01:12:32;1.80;99.90
15959;DHT22;8078;47.822;9.402;2023-02-15T01:14:58;1.80;99.90
15959;DHT22;8078;47.822;9.402;2023-02-15T01:17:23;1.70;99.90
15959;DHT22;8078;47.822;9.402;2023-02-15T01:19:49;1.60;99.90
15959;DHT22;8078;47.822;9.402;2023-02-15T01:22:14;1.60;99.90
15959;DHT22;8078;47.822;9.402;2023-02-15T01:24:40;1.60;99.90
15959;DHT22;8078;47.822;9.402;2023-02-15T01:27:06;1.60;99.90
15959;DHT22;8078;47.822;9.402;2023-02-15T01:29:31;1.60;99.90
15959;DHT22;8078;47.822;9.402;2023-02-15T01:31:57;1.50;99.90
15959;DHT22;8078;47.822;9.402;2023-02-15T01:34:23;1.50;99.90
15959;DHT22;8078;47.822;9.402;2023-02-15T01:36:48;1.50;99.90
15959;DHT22;8078;47.822;9.402;2023-02-15T01:39:14;1.40;99.90
15959;DHT22;8078;47.822;9.402;2023-02-15T01:41:40;1.30;99.90
15959;DHT22;8078;47.822;9.402;2023-02-15T01:46:52;1.30;99.90
15959;DHT22;8078;47.822;9.402;2023-02-15T01:49:21;1.30;99.90
15959;DHT22;8078;47.822;9.402;2023-02-15T01:51:50;1.30;99.90
15959;DHT22;8078;47.822;9.402;2023-02-15T01:54:22;1.30;99.90
15959;DHT22;8078;47.822;9.402;2023-02-15T01:56:49;1.30;99.90
15959;DHT22;8078;47.822;9.402;2023-02-15T01:59:20;1.40;99.90
15959;DHT22;8078;47.822;9.402;2023-02-15T02:01:46;1.30;99.90
15959;DHT22;8078;47.822;9.402;2023-02-15T02:04:28;1.30;99.90
15959;DHT22;8078;47.822;9.402;2023-02-15T02:06:57;1.20;99.90
15959;DHT22;8078;47.822;9.402;2023-02-15T02:09:22;1.20;99.90
15959;DHT22;8078;47.822;9.402;2023-02-15T02:11:48;1.20;99.90
15959;DHT22;8078;47.822;9.402;2023-02-15T02:14:15;1.20;99.90
15959;DHT22;8078;47.822;9.402;2023-02-15T02:16:50;1.20;99.90
15959;DHT22;8078;47.822;9.402;2023-02-15T02:19:45;1.10;99.90
15959;DHT22;8078;47.822;9.402;2023-02-15T02:28:23;1.20;99.90
15959;DHT22;8078;47.822;9.402;2023-02-15T02:36:29;1.50;99.90
15959;DHT22;8078;47.822;9.402;2023-02-15T02:39:12;1.80;99.90
15959;DHT22;8078;47.822;9.402;2023-02-15T02:41:58;1.60;99.90
15959;DHT22;8078;47.822;9.402;2023-02-15T02:44:40;1.50;99.90
15959;DHT22;8078;47.822;9.402;2023-02-15T02:49:39;2.00;99.90
15959;DHT22;8078;47.822;9.402;2023-02-15T02:54:50;1.90;99.90
15959;DHT22;8078;47.822;9.402;2023-02-15T02:57:16;1.60;99.90
15959;DHT22;8078;47.822;9.402;2023-02-15T02:59:44;1.40;99.90
15959;DHT22;8078;47.822;9.402;2023-02-15T03:02:18;1.40;99.90
15959;DHT22;8078;47.822;9.402;2023-02-15T03:04:50;1.40;99.90
15959;DHT22;8078;47.822;9.402;2023-02-15T03:07:25;1.30;99.90
15959;DHT22;8078;47.822;9.402;2023-02-15T03:09:55;1.10;99.90
15959;DHT22;8078;47.822;9.402;2023-02-15T03:12:29;1.20;99.90
15959;DHT22;8078;47.822;9.402;2023-02-15T03:15:05;1.30;99.90
15959;DHT22;8078;47.822;9.402;2023-02-15T03:17:33;1.60;99.90
15959;DHT22;8078;47.822;9.402;2023-02-15T03:20:09;1.90;99.90
15959;DHT22;8078;47.822;9.402;2023-02-15T03:22:59;2.10;99.90
15959;DHT22;8078;47.822;9.402;2023-02-15T03:25:44;2.60;99.90
15959;DHT22;8078;47.822;9.402;2023-02-15T03:28:15;3.30;99.90
15959;DHT22;8078;47.822;9.402;2023-02-15T03:30:45;3.50;99.90
15959;DHT22;8078;47.822;9.402;2023-02-15T03:33:14;3.70;99.90
15959;DHT22;8078;47.822;9.402;2023-02-15T03:35:49;3.50;99.90
15959;DHT22;8078;47.822;9.402;2023-02-15T03:38:20;3.30;99.90
15959;DHT22;8078;47.822;9.402;2023-02-15T03:40:49;3.50;99.90
15959;DHT22;8078;47.822;9.402;2023-02-15T03:43:49;3.50;99.90
15959;DHT22;8078;47.822;9.402;2023-02-15T03:49:03;3.80;99.90
15959;DHT22;8078;47.822;9.402;2023-02-15T03:51:35;3.90;99.90
15959;DHT22;8078;47.822;9.402;2023-02-15T03:54:30;4.00;99.90
15959;DHT22;8078;47.822;9.402;2023-02-15T03:57:21;4.20;99.90
15959;DHT22;8078;47.822;9.402;2023-02-15T04:00:21;4.20;99.90
15959;DHT22;8078;47.822;9.402;2023-02-15T04:05:38;4.40;99.90
15959;DHT22;8078;47.822;9.402;2023-02-15T04:08:04;4.40;99.90
15959;DHT22;8078;47.822;9.402;2023-02-15T04:10:30;4.30;99.90
15959;DHT22;8078;47.822;9.402;2023-02-15T04:13:14;4.20;99.90
15959;DHT22;8078;47.822;9.402;2023-02-15T04:15:40;4.10;99.90
15959;DHT22;8078;47.822;9.402;2023-02-15T04:18:24;4.00;99.90
15959;DHT22;8078;47.822;9.402;2023-02-15T04:21:08;4.00;99.90
15959;DHT22;8078;47.822;9.402;2023-02-15T04:23:52;4.00;99.90
15959;DHT22;8078;47.822;9.402;2023-02-15T04:26:37;3.90;99.90
15959;DHT22;8078;47.822;9.402;2023-02-15T04:29:02;4.50;99.90
15959;DHT22;8078;47.822;9.402;2023-02-15T04:31:28;4.70;99.90
15959;DHT22;8078;47.822;9.402;2023-02-15T04:33:53;4.70;99.90
15959;DHT22;8078;47.822;9.402;2023-02-15T04:36:19;4.60;99.90
15959;DHT22;8078;47.822;9.402;2023-02-15T04:38:44;4.60;99.90
15959;DHT22;8078;47.822;9.402;2023-02-15T04:41:10;4.60;99.90
15959;DHT22;8078;47.822;9.402;2023-02-15T04:43:37;4.60;99.90
15959;DHT22;8078;47.822;9.402;2023-02-15T04:46:03;4.50;99.90
15959;DHT22;8078;47.822;9.402;2023-02-15T04:48:29;4.40;99.90
15959;DHT22;8078;47.822;9.402;2023-02-15T04:50:54;4.20;99.90
15959;DHT22;8078;47.822;9.402;2023-02-15T04:53:20;4.00;99.90
15959;DHT22;8078;47.822;9.402;2023-02-15T04:55:45;4.10;99.90
15959;DHT22;8078;47.822;9.402;2023-02-15T04:58:11;4.00;99.90
15959;DHT22;8078;47.822;9.402;2023-02-15T05:00:36;4.10;99.90
15959;DHT22;8078;47.822;9.402;2023-02-15T05:03:02;4.10;99.90
15959;DHT22;8078;47.822;9.402;2023-02-15T05:05:27;4.00;99.90
15959;DHT22;8078;47.822;9.402;2023-02-15T05:07:55;4.20;99.90
15959;DHT22;8078;47.822;9.402;2023-02-15T05:10:21;4.50;99.90
15959;DHT22;8078;47.822;9.402;2023-02-15T05:12:46;4.70;99.90
15959;DHT22;8078;47.822;9.402;2023-02-15T05:15:12;4.60;99.90
15959;DHT22;8078;47.822;9.402;2023-02-15T05:17:38;4.50;99.90
15959;DHT22;8078;47.822;9.402;2023-02-15T05:20:04;4.40;99.90
15959;DHT22;8078;47.822;9.402;2023-02-15T05:22:30;4.30;99.90
15959;DHT22;8078;47.822;9.402;2023-02-15T05:24:55;4.20;99.90
15959;DHT22;8078;47.822;9.402;2023-02-15T05:27:39;4.20;99.90
15959;DHT22;8078;47.822;9.402;2023-02-15T05:30:23;4.40;99.90
15959;DHT22;8078;47.822;9.402;2023-02-15T05:32:49;4.50;99.90
15959;DHT22;8078;47.822;9.402;2023-02-15T05:35:15;4.50;99.90
15959;DHT22;8078;47.822;9.402;2023-02-15T05:37:41;4.70;99.90
15959;DHT22;8078;47.822;9.402;2023-02-15T05:40:08;4.90;99.90
15959;DHT22;8078;47.822;9.402;2023-02-15T05:42:33;4.70;99.90
15959;DHT22;8078;47.822;9.402;2023-02-15T05:44:59;4.40;99.90
15959;DHT22;8078;47.822;9.402;2023-02-15T05:47:25;4.40;99.90
15959;DHT22;8078;47.822;9.402;2023-02-15T05:49:50;4.20;99.90
15959;DHT22;8078;47.822;9.402;2023-02-15T05:52:16;4.00;99.90
15959;DHT22;8078;47.822;9.402;2023-02-15T05:54:42;3.90;99.90
15959;DHT22;8078;47.822;9.402;2023-02-15T05:57:07;3.90;99.90
15959;DHT22;8078;47.822;9.402;2023-02-15T05:59:33;3.90;99.90
15959;DHT22;8078;47.822;9.402;2023-02-15T06:01:58;3.90;99.90
15959;DHT22;8078;47.822;9.402;2023-02-15T06:04:24;3.80;99.90
15959;DHT22;8078;47.822;9.402;2023-02-15T06:06:49;3.80;99.90
15959;DHT22;8078;47.822;9.402;2023-02-15T06:09:15;3.90;99.90
15959;DHT22;8078;47.822;9.402;2023-02-15T06:11:44;3.90;99.90
15959;DHT22;8078;47.822;9.402;2023-02-15T06:14:10;3.70;99.90
15959;DHT22;8078;47.822;9.402;2023-02-15T06:16:35;3.50;99.90
15959;DHT22;8078;47.822;9.402;2023-02-15T06:19:02;3.40;99.90
15959;DHT22;8078;47.822;9.402;2023-02-15T06:21:28;3.50;99.90
15959;DHT22;8078;47.822;9.402;2023-02-15T06:23:54;3.50;99.90
15959;DHT22;8078;47.822;9.402;2023-02-15T06:26:20;3.50;99.90
15959;DHT22;8078;47.822;9.402;2023-02-15T06:28:45;3.50;99.90
15959;DHT22;8078;47.822;9.402;2023-02-15T06:31:11;3.60;99.90
15959;DHT22;8078;47.822;9.402;2023-02-15T06:33:36;3.80;99.90
15959;DHT22;8078;47.822;9.402;2023-02-15T06:36:02;3.80;99.90
15959;DHT22;8078;47.822;9.402;2023-02-15T06:38:29;3.70;99.90
15959;DHT22;8078;47.822;9.402;2023-02-15T06:40:54;3.70;99.90
15959;DHT22;8078;47.822;9.402;2023-02-15T06:43:20;3.70;99.90
15959;DHT22;8078;47.822;9.402;2023-02-15T06:45:46;3.70;99.90
15959;DHT22;8078;47.822;9.402;2023-02-15T06:48:11;3.70;99.90
15959;DHT22;8078;47.822;9.402;2023-02-15T06:50:37;3.80;99.90
15959;DHT22;8078;47.822;9.402;2023-02-15T06:53:02;3.90;99.90
15959;DHT22;8078;47.822;9.402;2023-02-15T06:55:28;3.90;99.90
15959;DHT22;8078;47.822;9.402;2023-02-15T06:57:53;4.10;99.90
15959;DHT22;8078;47.822;9.402;2023-02-15T07:00:19;4.20;99.90
15959;DHT22;8078;47.822;9.402;2023-02-15T07:02:47;4.20;99.90
15959;DHT22;8078;47.822;9.402;2023-02-15T07:05:12;4.20;99.90
15959;DHT22;8078;47.822;9.402;2023-02-15T07:07:38;4.20;99.90
15959;DHT22;8078;47.822;9.402;2023-02-15T07:10:04;4.20;99.90
15959;DHT22;8078;47.822;9.402;2023-02-15T07:12:30;4.20;99.90
15959;DHT22;8078;47.822;9.402;2023-02-15T07:15:18;4.30;99.90
15959;DHT22;8078;47.822;9.402;2023-02-15T07:17:46;4.40;99.90
15959;DHT22;8078;47.822;9.402;2023-02-15T07:20:22;4.40;99.90
15959;DHT22;8078;47.822;9.402;2023-02-15T07:22:49;4.30;99.90
15959;DHT22;8078;47.822;9.402;2023-02-15T07:25:15;4.30;99.90
15959;DHT22;8078;47.822;9.402;2023-02-15T07:27:41;4.30;99.90
15959;DHT22;8078;47.822;9.402;2023-02-15T07:30:11;4.20;99.90
15959;DHT22;8078;47.822;9.402;2023-02-15T07:32:38;4.20;99.90
15959;DHT22;8078;47.822;9.402;2023-02-15T07:35:23;4.30;99.90
15959;DHT22;8078;47.822;9.402;2023-02-15T07:37:49;4.20;99.90
15959;DHT22;8078;47.822;9.402;2023-02-15T07:40:15;4.30;99.90
15959;DHT22;8078;47.822;9.402;2023-02-15T07:42:40;4.30;99.90
15959;DHT22;8078;47.822;9.402;2023-02-15T07:45:06;4.30;99.90
15959;DHT22;8078;47.822;9.402;2023-02-15T07:47:32;4.30;99.90
15959;DHT22;8078;47.822;9.402;2023-02-15T07:49:57;4.40;99.90
15959;DHT22;8078;47.822;9.402;2023-02-15T07:52:23;4.30;99.90
15959;DHT22;8078;47.822;9.402;2023-02-15T07:54:48;4.50;99.90
15959;DHT22;8078;47.822;9.402;2023-02-15T07:57:14;4.50;99.90
15959;DHT22;8078;47.822;9.402;2023-02-15T07:59:39;4.60;99.90
15959;DHT22;8078;47.822;9.402;2023-02-15T08:02:11;4.60;99.90
15959;DHT22;8078;47.822;9.402;2023-02-15T08:04:37;4.70;99.90
15959;DHT22;8078;47.822;9.402;2023-02-15T08:07:02;4.70;99.90
15959;DHT22;8078;47.822;9.402;2023-02-15T08:09:29;4.80;99.90
15959;DHT22;8078;47.822;9.402;2023-02-15T08:11:55;4.80;99.90
15959;DHT22;8078;47.822;9.402;2023-02-15T08:14:21;4.90;99.90
15959;DHT22;8078;47.822;9.402;2023-02-15T08:16:51;5.00;99.90
15959;DHT22;8078;47.822;9.402;2023-02-15T08:19:18;5.10;99.90
15959;DHT22;8078;47.822;9.402;2023-02-15T08:21:47;5.30;99.90
15959;DHT22;8078;47.822;9.402;2023-02-15T08:24:14;5.30;99.90
15959;DHT22;8078;47.822;9.402;2023-02-15T08:26:41;5.30;99.90
15959;DHT22;8078;47.822;9.402;2023-02-15T08:29:07;5.40;99.90
15959;DHT22;8078;47.822;9.402;2023-02-15T08:31:34;5.50;99.90
15959;DHT22;8078;47.822;9.402;2023-02-15T08:34:00;5.60;99.90
15959;DHT22;8078;47.822;9.402;2023-02-15T08:36:28;5.60;99.90
15959;DHT22;8078;47.822;9.402;2023-02-15T08:38:54;5.60;99.90
15959;DHT22;8078;47.822;9.402;2023-02-15T08:41:22;5.60;99.90
15959;DHT22;8078;47.822;9.402;2023-02-15T08:43:53;5.60;99.90
15959;DHT22;8078;47.822;9.402;2023-02-15T08:46:19;5.70;99.90
15959;DHT22;8078;47.822;9.402;2023-02-15T08:48:46;5.80;99.90
15959;DHT22;8078;47.822;9.402;2023-02-15T08:51:20;5.80;99.90
15959;DHT22;8078;47.822;9.402;2023-02-15T08:53:48;5.90;99.90
15959;DHT22;8078;47.822;9.402;2023-02-15T08:56:15;6.00;99.90
15959;DHT22;8078;47.822;9.402;2023-02-15T08:58:41;6.10;99.90
15959;DHT22;8078;47.822;9.402;2023-02-15T09:01:12;6.00;99.90
15959;DHT22;8078;47.822;9.402;2023-02-15T09:03:38;6.10;99.90
15959;DHT22;8078;47.822;9.402;2023-02-15T09:06:04;6.20;99.90
15959;DHT22;8078;47.822;9.402;2023-02-15T09:08:30;6.20;99.90
15959;DHT22;8078;47.822;9.402;2023-02-15T09:11:11;6.20;99.90
15959;DHT22;8078;47.822;9.402;2023-02-15T09:13:38;6.20;99.90
15959;DHT22;8078;47.822;9.402;2023-02-15T09:16:06;6.30;99.90
15959;DHT22;8078;47.822;9.402;2023-02-15T09:18:35;6.40;99.90
15959;DHT22;8078;47.822;9.402;2023-02-15T09:21:09;6.40;99.90
15959;DHT22;8078;47.822;9.402;2023-02-15T09:23:35;6.50;99.90
15959;DHT22;8078;47.822;9.402;2023-02-15T09:26:03;6.40;99.90
15959;DHT22;8078;47.822;9.402;2023-02-15T09:28:29;6.50;99.90
15959;DHT22;8078;47.822;9.402;2023-02-15T09:30:54;6.50;99.90
15959;DHT22;8078;47.822;9.402;2023-02-15T09:33:20;6.50;99.90
15959;DHT22;8078;47.822;9.402;2023-02-15T09:35:47;6.50;99.90
15959;DHT22;8078;47.822;9.402;2023-02-15T09:38:12;6.50;99.90
15959;DHT22;8078;47.822;9.402;2023-02-15T09:40:48;6.70;99.90
15959;DHT22;8078;47.822;9.402;2023-02-15T09:48:58;6.70;99.90
15959;DHT22;8078;47.822;9.402;2023-02-15T09:54:21;6.70;99.90
15959;DHT22;8078;47.822;9.402;2023-02-15T09:56:52;6.80;99.90
15959;DHT22;8078;47.822;9.402;2023-02-15T09:59:30;6.90;99.90
15959;DHT22;8078;47.822;9.402;2023-02-15T10:05:07;6.90;99.90
15959;DHT22;8078;47.822;9.402;2023-02-15T10:16:43;7.30;99.90
15959;DHT22;8078;47.822;9.402;2023-02-15T10:19:37;7.40;99.90
15959;DHT22;8078;47.822;9.402;2023-02-15T10:27:26;7.50;99.90
15959;DHT22;8078;47.822;9.402;2023-02-15T10:30:08;7.50;99.90
15959;DHT22;8078;47.822;9.402;2023-02-15T10:32:58;7.50;99.90
15959;DHT22;8078;47.822;9.402;2023-02-15T10:38:37;7.60;99.90
15959;DHT22;8078;47.822;9.402;2023-02-15T10:41:27;7.70;99.90
15959;DHT22;8078;47.822;9.402;2023-02-15T10:52:08;8.00;99.90
15959;DHT22;8078;47.822;9.402;2023-02-15T10:57:21;8.20;99.90
15959;DHT22;8078;47.822;9.402;2023-02-15T11:05:41;8.20;99.90
15959;DHT22;8078;47.822;9.402;2023-02-15T11:08:10;8.20;99.90
15959;DHT22;8078;47.822;9.402;2023-02-15T11:10:44;8.00;99.90
15959;DHT22;8078;47.822;9.402;2023-02-15T11:13:16;8.30;99.90
15959;DHT22;8078;47.822;9.402;2023-02-15T11:18:27;8.20;99.90
15959;DHT22;8078;47.822;9.402;2023-02-15T11:21:09;8.30;99.90
15959;DHT22;8078;47.822;9.402;2023-02-15T11:23:40;8.40;99.90
15959;DHT22;8078;47.822;9.402;2023-02-15T11:26:13;8.40;99.90
15959;DHT22;8078;47.822;9.402;2023-02-15T11:28:45;8.40;99.90
15959;DHT22;8078;47.822;9.402;2023-02-15T11:31:25;8.40;99.90
15959;DHT22;8078;47.822;9.402;2023-02-15T11:33:56;8.40;99.90
15959;DHT22;8078;47.822;9.402;2023-02-15T11:36:32;8.50;99.90
15959;DHT22;8078;47.822;9.402;2023-02-15T11:39:03;8.40;99.90
15959;DHT22;8078;47.822;9.402;2023-02-15T11:41:34;8.50;99.90
15959;DHT22;8078;47.822;9.402;2023-02-15T11:44:13;8.60;99.90
15959;DHT22;8078;47.822;9.402;2023-02-15T11:46:40;8.70;99.90
15959;DHT22;8078;47.822;9.402;2023-02-15T11:49:26;8.60;99.90
15959;DHT22;8078;47.822;9.402;2023-02-15T11:51:53;8.50;99.90
15959;DHT22;8078;47.822;9.402;2023-02-15T11:54:24;8.70;99.90
15959;DHT22;8078;47.822;9.402;2023-02-15T11:56:51;8.60;99.90
15959;DHT22;8078;47.822;9.402;2023-02-15T11:59:29;8.70;99.90
15959;DHT22;8078;47.822;9.402;2023-02-15T12:01:57;8.70;99.90
15959;DHT22;8078;47.822;9.402;2023-02-15T12:04:37;8.70;99.90
15959;DHT22;8078;47.822;9.402;2023-02-15T12:07:15;8.80;99.90
15959;DHT22;8078;47.822;9.402;2023-02-15T12:10:00;8.80;99.90
15959;DHT22;8078;47.822;9.402;2023-02-15T12:12:32;8.70;99.90
15959;DHT22;8078;47.822;9.402;2023-02-15T12:15:10;8.90;99.90
15959;DHT22;8078;47.822;9.402;2023-02-15T12:17:39;9.10;99.90
15959;DHT22;8078;47.822;9.402;2023-02-15T12:22:49;9.20;99.90
15959;DHT22;8078;47.822;9.402;2023-02-15T12:27:53;9.70;99.90
15959;DHT22;8078;47.822;9.402;2023-02-15T12:30:31;9.70;99.90
15959;DHT22;8078;47.822;9.402;2023-02-15T12:33:05;9.80;99.90
15959;DHT22;8078;47.822;9.402;2023-02-15T12:35:39;9.90;99.90
15959;DHT22;8078;47.822;9.402;2023-02-15T12:38:21;10.00;99.90
15959;DHT22;8078;47.822;9.402;2023-02-15T12:41:24;10.00;99.90
15959;DHT22;8078;47.822;9.402;2023-02-15T12:46:33;10.20;99.90
15959;DHT22;8078;47.822;9.402;2023-02-15T12:49:18;10.10;99.90
15959;DHT22;8078;47.822;9.402;2023-02-15T12:51:53;10.30;99.90
15959;DHT22;8078;47.822;9.402;2023-02-15T12:56:47;10.60;99.90
15959;DHT22;8078;47.822;9.402;2023-02-15T12:59:14;10.90;99.90
15959;DHT22;8078;47.822;9.402;2023-02-15T13:01:41;10.80;99.90
15959;DHT22;8078;47.822;9.402;2023-02-15T13:04:23;11.00;99.90
15959;DHT22;8078;47.822;9.402;2023-02-15T13:06:52;11.20;99.90
15959;DHT22;8078;47.822;9.402;2023-02-15T13:09:23;11.00;99.90
15959;DHT22;8078;47.822;9.402;2023-02-15T13:11:50;11.00;99.90
15959;DHT22;8078;47.822;9.402;2023-02-15T13:14:25;10.90;99.90
15959;DHT22;8078;47.822;9.402;2023-02-15T13:16:57;11.30;99.90
15959;DHT22;8078;47.822;9.402;2023-02-15T13:19:44;11.10;99.90
15959;DHT22;8078;47.822;9.402;2023-02-15T13:22:16;11.30;99.90
15959;DHT22;8078;47.822;9.402;2023-02-15T13:24:46;11.50;99.90
15959;DHT22;8078;47.822;9.402;2023-02-15T13:27:16;11.50;99.90
15959;DHT22;8078;47.822;9.402;2023-02-15T13:29:52;11.60;99.90
15959;DHT22;8078;47.822;9.402;2023-02-15T13:32:35;11.50;99.90
15959;DHT22;8078;47.822;9.402;2023-02-15T13:35:03;11.50;99.90
15959;DHT22;8078;47.822;9.402;2023-02-15T13:37:52;11.70;99.90
15959;DHT22;8078;47.822;9.402;2023-02-15T13:40:25;11.60;99.90
15959;DHT22;8078;47.822;9.402;2023-02-15T13:43:02;11.40;99.90
15959;DHT22;8078;47.822;9.402;2023-02-15T13:45:38;11.20;99.90
15959;DHT22;8078;47.822;9.402;2023-02-15T13:51:20;12.20;99.90
15959;DHT22;8078;47.822;9.402;2023-02-15T13:53:56;12.50;99.90
15959;DHT22;8078;47.822;9.402;2023-02-15T13:59:38;12.00;99.90
15959;DHT22;8078;47.822;9.402;2023-02-15T14:02:36;11.60;99.90
15959;DHT22;8078;47.822;9.402;2023-02-15T14:05:06;11.50;99.90
15959;DHT22;8078;47.822;9.402;2023-02-15T14:07:53;11.20;99.90
15959;DHT22;8078;47.822;9.402;2023-02-15T14:10:43;11.40;99.90
15959;DHT22;8078;47.822;9.402;2023-02-15T14:15:56;11.80;99.90
15959;DHT22;8078;47.822;9.402;2023-02-15T14:21:31;12.60;99.90
15959;DHT22;8078;47.822;9.402;2023-02-15T14:27:14;12.80;99.90
15959;DHT22;8078;47.822;9.402;2023-02-15T14:29:56;14.10;99.90
15959;DHT22;8078;47.822;9.402;2023-02-15T14:32:44;15.40;99.90
15959;DHT22;8078;47.822;9.402;2023-02-15T14:35:17;16.60;99.90
15959;DHT22;8078;47.822;9.402;2023-02-15T14:37:50;18.50;99.90
15959;DHT22;8078;47.822;9.402;2023-02-15T14:40:40;19.10;99.90
15959;DHT22;8078;47.822;9.402;2023-02-15T14:43:49;20.30;99.90
15959;DHT22;8078;47.822;9.402;2023-02-15T14:46:22;21.60;99.90
15959;DHT22;8078;47.822;9.402;2023-02-15T14:48:52;20.00;99.90
15959;DHT22;8078;47.822;9.402;2023-02-15T14:59:56;16.40;99.90
15959;DHT22;8078;47.822;9.402;2023-02-15T15:02:43;15.80;99.90
15959;DHT22;8078;47.822;9.402;2023-02-15T15:08:33;14.60;99.90
15959;DHT22;8078;47.822;9.402;2023-02-15T15:13:57;15.40;99.90
15959;DHT22;8078;47.822;9.402;2023-02-15T15:18:55;16.50;99.90
15959;DHT22;8078;47.822;9.402;2023-02-15T15:47:29;16.30;99.90
15959;DHT22;8078;47.822;9.402;2023-02-15T15:49:59;16.20;99.90
15959;DHT22;8078;47.822;9.402;2023-02-15T15:52:26;16.70;99.90
15959;DHT22;8078;47.822;9.402;2023-02-15T15:54:56;16.10;99.90
15959;DHT22;8078;47.822;9.402;2023-02-15T15:57:32;16.30;99.90
15959;DHT22;8078;47.822;9.402;2023-02-15T15:59:58;15.80;99.90
15959;DHT22;8078;47.822;9.402;2023-02-15T16:02:25;15.20;99.90
15959;DHT22;8078;47.822;9.402;2023-02-15T16:04:51;14.00;99.90
15959;DHT22;8078;47.822;9.402;2023-02-15T16:10:03;13.10;99.90
15959;DHT22;8078;47.822;9.402;2023-02-15T16:12:32;13.10;99.90
15959;DHT22;8078;47.822;9.402;2023-02-15T16:15:02;13.10;99.90
15959;DHT22;8078;47.822;9.402;2023-02-15T16:17:30;12.70;99.90
15959;DHT22;8078;47.822;9.402;2023-02-15T16:28:11;10.90;99.90
15959;DHT22;8078;47.822;9.402;2023-02-15T16:30:38;10.40;99.90
15959;DHT22;8078;47.822;9.402;2023-02-15T16:33:11;10.10;99.90
15959;DHT22;8078;47.822;9.402;2023-02-15T16:35:39;9.90;99.90
15959;DHT22;8078;47.822;9.402;2023-02-15T16:38:08;9.60;99.90
15959;DHT22;8078;47.822;9.402;2023-02-15T16:40:42;9.20;99.90
15959;DHT22;8078;47.822;9.402;2023-02-15T16:43:18;8.90;99.90
15959;DHT22;8078;47.822;9.402;2023-02-15T16:45:44;8.70;99.90
15959;DHT22;8078;47.822;9.402;2023-02-15T16:48:16;8.80;99.90
15959;DHT22;8078;47.822;9.402;2023-02-15T16:50:48;8.80;99.90
15959;DHT22;8078;47.822;9.402;2023-02-15T16:53:21;8.80;99.90
15959;DHT22;8078;47.822;9.402;2023-02-15T16:55:50;8.60;99.90
15959;DHT22;8078;47.822;9.402;2023-02-15T16:58:17;8.50;99.90
15959;DHT22;8078;47.822;9.402;2023-02-15T17:00:45;8.40;99.90
15959;DHT22;8078;47.822;9.402;2023-02-15T17:05:46;8.40;99.90
15959;DHT22;8078;47.822;9.402;2023-02-15T17:08:18;8.20;99.90
15959;DHT22;8078;47.822;9.402;2023-02-15T17:18:57;8.30;99.90
15959;DHT22;8078;47.822;9.402;2023-02-15T17:21:27;8.40;99.90
15959;DHT22;8078;47.822;9.402;2023-02-15T17:24:00;8.40;99.90
15959;DHT22;8078;47.822;9.402;2023-02-15T17:26:35;8.40;99.90
15959;DHT22;8078;47.822;9.402;2023-02-15T17:31:48;8.30;99.90
15959;DHT22;8078;47.822;9.402;2023-02-15T17:37:12;8.40;99.90
15959;DHT22;8078;47.822;9.402;2023-02-15T17:39:38;8.40;99.90
15959;DHT22;8078;47.822;9.402;2023-02-15T17:42:05;8.30;99.90
15959;DHT22;8078;47.822;9.402;2023-02-15T17:44:31;8.40;99.90
15959;DHT22;8078;47.822;9.402;2023-02-15T17:46:57;8.40;99.90
15959;DHT22;8078;47.822;9.402;2023-02-15T17:49:25;8.40;99.90
15959;DHT22;8078;47.822;9.402;2023-02-15T17:52:00;8.40;99.90
15959;DHT22;8078;47.822;9.402;2023-02-15T17:54:25;8.20;99.90
15959;DHT22;8078;47.822;9.402;2023-02-15T17:57:12;8.10;99.90
15959;DHT22;8078;47.822;9.402;2023-02-15T17:59:38;8.00;99.90
15959;DHT22;8078;47.822;9.402;2023-02-15T18:02:22;8.00;99.90
15959;DHT22;8078;47.822;9.402;2023-02-15T18:05:14;7.90;99.90
15959;DHT22;8078;47.822;9.402;2023-02-15T18:07:59;7.90;99.90
15959;DHT22;8078;47.822;9.402;2023-02-15T18:10:43;8.10;99.90
15959;DHT22;8078;47.822;9.402;2023-02-15T18:13:28;8.10;99.90
15959;DHT22;8078;47.822;9.402;2023-02-15T18:15:54;8.20;99.90
15959;DHT22;8078;47.822;9.402;2023-02-15T18:18:21;8.20;99.90
15959;DHT22;8078;47.822;9.402;2023-02-15T18:20:47;8.10;99.90
15959;DHT22;8078;47.822;9.402;2023-02-15T18:23:13;7.90;99.90
15959;DHT22;8078;47.822;9.402;2023-02-15T18:25:39;8.10;99.90
15959;DHT22;8078;47.822;9.402;2023-02-15T18:28:05;8.10;99.90
15959;DHT22;8078;47.822;9.402;2023-02-15T18:30:35;8.00;99.90
15959;DHT22;8078;47.822;9.402;2023-02-15T18:33:01;8.20;99.90
15959;DHT22;8078;47.822;9.402;2023-02-15T18:35:31;8.00;99.90
15959;DHT22;8078;47.822;9.402;2023-02-15T18:37:58;8.00;99.90
15959;DHT22;8078;47.822;9.402;2023-02-15T18:40:26;8.10;99.90
15959;DHT22;8078;47.822;9.402;2023-02-15T18:42:52;8.00;99.90
15959;DHT22;8078;47.822;9.402;2023-02-15T18:45:23;7.90;99.90
15959;DHT22;8078;47.822;9.402;2023-02-15T18:47:50;7.90;99.90
15959;DHT22;8078;47.822;9.402;2023-02-15T18:50:17;7.90;99.90
15959;DHT22;8078;47.822;9.402;2023-02-15T18:52:45;7.70;99.90
15959;DHT22;8078;47.822;9.402;2023-02-15T18:55:18;7.70;99.90
15959;DHT22;8078;47.822;9.402;2023-02-15T18:57:45;7.70;99.90
15959;DHT22;8078;47.822;9.402;2023-02-15T19:00:19;7.60;99.90
15959;DHT22;8078;47.822;9.402;2023-02-15T19:02:45;7.70;99.90
15959;DHT22;8078;47.822;9.402;2023-02-15T19:05:11;7.70;99.90
15959;DHT22;8078;47.822;9.402;2023-02-15T19:07:38;7.50;99.90
15959;DHT22;8078;47.822;9.402;2023-02-15T19:10:06;7.60;99.90
15959;DHT22;8078;47.822;9.402;2023-02-15T19:12:32;7.50;99.90